Time;durP1;ratioP1;P1;durP2;ratioP2;P2;SDS_P1;SDS_P2;PMS_P1;PMS_P2;Temp;Humidity;BMP_temperature;BMP_pressure;BME280_temperature;BME280_humidity;BME280_pressure;Samples;Min_cycle;Max_cycle;Signal;HPM_P1;HPM_P2
2022/07/25 00:00:28;;;;;;;4.97;2.97;;;24.10;99.00;;;;;;5086402;28;20094;-64
2022/07/25 00:02:54;;;;;;;5.03;2.75;;;24.10;98.90;;;;;;5085823;28;20430;-64
2022/07/25 00:05:20;;;;;;;5.47;2.70;;;24.00;98.80;;;;;;5068626;28;20056;-64
2022/07/25 00:07:46;;;;;;;3.60;2.67;;;24.00;98.90;;;;;;5070130;28;20509;-64
2022/07/25 00:10:12;;;;;;;4.07;2.65;;;24.00;99.30;;;;;;5068585;28;20044;-64
2022/07/25 00:12:38;;;;;;;3.78;2.70;;;24.00;99.20;;;;;;5070293;28;20549;-64
2022/07/25 00:15:05;;;;;;;3.80;2.67;;;24.00;99.40;;;;;;5073488;28;20068;-64
2022/07/25 00:17:31;;;;;;;6.07;2.70;;;24.00;99.50;;;;;;5055801;28;20060;-64
2022/07/25 00:19:57;;;;;;;4.28;2.50;;;23.90;99.50;;;;;;5072510;28;20055;-64
2022/07/25 00:22:22;;;;;;;4.65;2.90;;;23.90;99.30;;;;;;5072786;28;20046;-64
2022/07/25 00:24:48;;;;;;;4.53;2.90;;;23.90;99.50;;;;;;5072245;28;20486;-64
2022/07/25 00:27:14;;;;;;;5.18;2.97;;;23.90;99.40;;;;;;5072382;28;20124;-64
2022/07/25 00:29:39;;;;;;;8.25;3.13;;;23.90;99.70;;;;;;5073454;28;20044;-64
2022/07/25 00:32:05;;;;;;;5.28;2.58;;;23.80;99.60;;;;;;5072710;28;20083;-64
2022/07/25 00:34:31;;;;;;;3.83;2.70;;;23.90;99.70;;;;;;5069099;28;20041;-64
2022/07/25 00:36:57;;;;;;;4.22;2.55;;;23.90;99.80;;;;;;5067714;28;20058;-65
2022/07/25 00:39:23;;;;;;;4.38;3.00;;;23.80;99.90;;;;;;5072538;28;20045;-64
2022/07/25 00:41:49;;;;;;;3.65;2.70;;;23.80;99.90;;;;;;5055319;28;20045;-64
2022/07/25 00:44:25;;;;;;;4.07;2.70;;;23.80;99.80;;;;;;5073645;28;20045;-64
2022/07/25 00:46:53;;;;;;;7.90;2.78;;;23.80;99.90;;;;;;5071875;28;20040;-64
2022/07/25 00:49:18;;;;;;;2.83;2.50;;;23.70;99.90;;;;;;5089292;28;20049;-64
2022/07/25 00:51:45;;;;;;;4.80;3.00;;;23.70;99.90;;;;;;5073326;28;20119;-64
2022/07/25 00:54:11;;;;;;;5.55;3.38;;;23.70;99.90;;;;;;5071349;28;20509;-64
2022/07/25 00:56:37;;;;;;;3.67;2.95;;;23.70;99.90;;;;;;5073003;28;20040;-64
2022/07/25 00:59:03;;;;;;;4.60;3.00;;;23.60;99.90;;;;;;5071273;28;20516;-64
2022/07/25 01:01:28;;;;;;;5.53;2.95;;;23.60;99.90;;;;;;5073591;28;20120;-64
2022/07/25 01:03:54;;;;;;;4.35;3.13;;;23.50;99.90;;;;;;5055383;28;20048;-61
2022/07/25 01:06:21;;;;;;;4.88;3.28;;;23.50;99.90;;;;;;5072894;28;20064;-62
2022/07/25 01:08:47;;;;;;;4.53;2.97;;;23.50;99.90;;;;;;5073678;28;20053;-62
2022/07/25 01:11:12;;;;;;;6.35;3.40;;;23.50;99.90;;;;;;5073198;28;20041;-61
2022/07/25 01:13:38;;;;;;;5.10;3.17;;;23.50;99.90;;;;;;5073263;28;20040;-62
2022/07/25 01:16:04;;;;;;;5.20;3.50;;;23.50;99.90;;;;;;5072539;28;20253;-62
2022/07/25 01:18:30;;;;;;;4.32;3.47;;;23.40;99.90;;;;;;5073872;28;20525;-61
2022/07/25 01:20:56;;;;;;;5.95;3.65;;;23.40;99.90;;;;;;5073874;28;20048;-61
2022/07/25 01:23:22;;;;;;;4.40;3.30;;;23.40;99.90;;;;;;5074004;28;20044;-62
2022/07/25 01:25:47;;;;;;;8.05;3.92;;;23.30;99.90;;;;;;5072829;28;20070;-62
2022/07/25 01:28:13;;;;;;;5.60;3.60;;;23.30;99.90;;;;;;5073004;28;20489;-61
2022/07/25 01:30:39;;;;;;;4.57;3.55;;;23.30;99.90;;;;;;5072774;28;20062;-62
2022/07/25 01:33:05;;;;;;;6.68;3.80;;;23.30;99.90;;;;;;5072541;28;20051;-62
2022/07/25 01:35:30;;;;;;;4.47;3.60;;;23.20;99.90;;;;;;5072265;28;20443;-62
2022/07/25 01:37:56;;;;;;;5.13;3.72;;;23.20;99.90;;;;;;5072579;28;20056;-61
2022/07/25 01:40:22;;;;;;;5.15;4.07;;;23.20;99.90;;;;;;5073899;28;20052;-61
2022/07/25 01:42:47;;;;;;;5.28;4.10;;;23.20;99.90;;;;;;5072495;28;20044;-61
2022/07/25 01:45:13;;;;;;;5.53;3.90;;;23.10;99.90;;;;;;5073714;28;20051;-62
2022/07/25 01:47:39;;;;;;;7.88;4.18;;;23.10;99.90;;;;;;5073689;28;20048;-62
2022/07/25 01:50:06;;;;;;;7.57;4.60;;;23.00;99.90;;;;;;5073232;28;20090;-61
2022/07/25 01:52:32;;;;;;;6.72;4.10;;;23.00;99.90;;;;;;5073545;28;20113;-62
2022/07/25 01:54:57;;;;;;;6.43;4.57;;;22.90;99.90;;;;;;5088833;28;20048;-62
2022/07/25 01:57:23;;;;;;;5.45;4.50;;;22.90;99.90;;;;;;5072251;28;20158;-61
2022/07/25 01:59:49;;;;;;;6.38;4.45;;;22.80;99.90;;;;;;5073303;28;20063;-62
2022/07/25 02:02:15;;;;;;;6.93;4.57;;;22.70;99.90;;;;;;5071965;28;20122;-61
2022/07/25 02:04:40;;;;;;;7.20;4.22;;;22.70;99.90;;;;;;5055266;28;20040;-61
2022/07/25 02:07:06;;;;;;;6.32;4.68;;;22.70;99.90;;;;;;5071612;28;20055;-61
2022/07/25 02:09:32;;;;;;;7.20;4.78;;;22.70;99.90;;;;;;5088699;28;20088;-63
2022/07/25 02:11:58;;;;;;;6.85;5.13;;;22.70;99.90;;;;;;5072695;28;20087;-61
2022/07/25 02:14:23;;;;;;;7.53;4.93;;;22.60;99.90;;;;;;5073121;28;20421;-61
2022/07/25 02:16:49;;;;;;;9.55;4.60;;;22.60;99.90;;;;;;5073143;28;20041;-62
2022/07/25 02:19:15;;;;;;;5.95;4.45;;;22.60;99.90;;;;;;5071516;28;20402;-61
2022/07/25 02:21:41;;;;;;;5.97;4.45;;;22.60;99.90;;;;;;5072894;28;20083;-62
2022/07/25 02:24:07;;;;;;;6.03;4.13;;;22.60;99.90;;;;;;5072905;28;20131;-62
2022/07/25 02:26:32;;;;;;;6.50;5.20;;;22.50;99.90;;;;;;5071753;28;20043;-61
2022/07/25 02:28:58;;;;;;;7.05;5.05;;;22.50;99.90;;;;;;5072564;28;20040;-61
2022/07/25 02:31:24;;;;;;;8.20;4.93;;;22.50;99.90;;;;;;5072743;28;20123;-61
2022/07/25 02:33:49;;;;;;;9.23;4.88;;;22.50;99.90;;;;;;5071436;28;20070;-61
2022/07/25 02:36:16;;;;;;;6.32;5.00;;;22.50;99.90;;;;;;5071108;28;20257;-60
2022/07/25 02:38:41;;;;;;;7.15;4.90;;;22.50;99.90;;;;;;5072735;28;20052;-61
2022/07/25 02:41:07;;;;;;;6.72;4.93;;;22.50;99.90;;;;;;5072297;28;20045;-61
2022/07/25 02:43:33;;;;;;;6.30;5.60;;;22.50;99.90;;;;;;5071127;28;20067;-62
2022/07/25 02:45:59;;;;;;;7.32;5.20;;;22.60;99.90;;;;;;5071105;28;20471;-62
2022/07/25 02:48:24;;;;;;;6.30;5.07;;;22.60;99.90;;;;;;5072273;28;20047;-61
2022/07/25 02:50:50;;;;;;;6.55;4.95;;;22.60;99.90;;;;;;5072498;28;20048;-61
2022/07/25 02:53:16;;;;;;;11.43;5.38;;;22.70;99.90;;;;;;5071820;28;20168;-61
2022/07/25 02:55:42;;;;;;;7.35;5.35;;;22.70;99.90;;;;;;5070968;28;20044;-61
2022/07/25 02:58:07;;;;;;;13.85;5.65;;;22.70;99.90;;;;;;5071065;28;20044;-61
2022/07/25 03:00:33;;;;;;;8.20;5.03;;;22.70;99.90;;;;;;5072280;28;20085;-61
2022/07/25 03:02:59;;;;;;;6.63;4.85;;;22.70;99.90;;;;;;5072308;28;20040;-62
2022/07/25 03:05:25;;;;;;;5.68;4.72;;;22.70;99.90;;;;;;5072289;28;20047;-61
2022/07/25 03:07:51;;;;;;;7.78;5.15;;;22.70;99.90;;;;;;5070721;28;20056;-62
2022/07/25 03:10:16;;;;;;;6.45;4.55;;;22.70;99.90;;;;;;5070861;28;20053;-62
2022/07/25 03:12:42;;;;;;;6.55;5.15;;;22.70;99.90;;;;;;5070841;28;20041;-62
2022/07/25 03:15:11;;;;;;;6.93;5.45;;;22.70;99.90;;;;;;5071450;28;20509;-62
2022/07/25 03:17:37;;;;;;;6.18;4.80;;;22.70;99.90;;;;;;5071938;28;20048;-62
2022/07/25 03:20:06;;;;;;;7.82;4.75;;;22.70;99.90;;;;;;5070536;28;20437;-62
2022/07/25 03:22:32;;;;;;;5.93;4.95;;;22.70;99.90;;;;;;5071896;28;20044;-62
2022/07/25 03:24:58;;;;;;;6.53;4.65;;;22.70;99.90;;;;;;5071952;28;20045;-62
2022/07/25 03:27:23;;;;;;;10.23;5.18;;;22.70;99.90;;;;;;5070533;28;20059;-63
2022/07/25 03:29:49;;;;;;;5.93;4.80;;;22.70;99.90;;;;;;5071801;28;20050;-63
2022/07/25 03:32:15;;;;;;;5.90;4.70;;;22.60;99.90;;;;;;5053674;28;20067;-62
2022/07/25 03:34:40;;;;;;;7.63;5.18;;;22.60;99.90;;;;;;5071610;28;20050;-62
2022/07/25 03:37:06;;;;;;;6.05;4.75;;;22.60;99.90;;;;;;5071500;28;20047;-61
2022/07/25 03:39:32;;;;;;;8.10;5.47;;;22.60;99.90;;;;;;5071621;28;20544;-61
2022/07/25 03:41:58;;;;;;;7.55;5.18;;;22.60;99.90;;;;;;5071615;28;20484;-62
2022/07/25 03:44:24;;;;;;;6.03;5.07;;;22.60;99.90;;;;;;5070565;28;20052;-61
2022/07/25 03:46:50;;;;;;;9.30;5.30;;;22.50;99.90;;;;;;5071670;28;20052;-61
2022/07/25 03:49:16;;;;;;;7.55;5.65;;;22.50;99.90;;;;;;5074991;28;20048;-61
2022/07/25 03:51:42;;;;;;;7.13;6.13;;;22.50;99.90;;;;;;5075931;28;20041;-61
2022/07/25 03:54:12;;;;;;;8.75;6.15;;;22.50;99.90;;;;;;5075309;28;20040;-62
2022/07/25 03:56:42;;;;;;;8.98;6.72;;;22.50;99.90;;;;;;5075530;28;20123;-60
2022/07/25 03:59:09;;;;;;;7.05;6.30;;;22.40;99.90;;;;;;5074953;28;20091;-62
2022/07/25 04:01:36;;;;;;;9.55;6.82;;;22.40;99.90;;;;;;5073847;28;20490;-62
2022/07/25 04:04:03;;;;;;;9.65;6.90;;;22.50;99.90;;;;;;5075216;28;20561;-62
2022/07/25 04:06:29;;;;;;;10.50;6.50;;;22.50;99.90;;;;;;5074836;28;20092;-62
2022/07/25 04:08:55;;;;;;;10.07;7.22;;;22.50;99.90;;;;;;5074352;28;20110;-62
2022/07/25 04:11:21;;;;;;;9.18;7.22;;;22.50;99.90;;;;;;5057118;28;20525;-60
2022/07/25 04:13:47;;;;;;;9.88;7.13;;;22.60;99.90;;;;;;5073678;28;20055;-62
2022/07/25 04:16:13;;;;;;;8.40;6.88;;;22.60;99.90;;;;;;5073737;28;20127;-63
2022/07/25 04:18:39;;;;;;;9.73;6.85;;;22.60;99.90;;;;;;5074365;28;20561;-63
2022/07/25 04:21:05;;;;;;;10.38;7.72;;;22.60;99.90;;;;;;5074377;28;20131;-62
2022/07/25 04:23:31;;;;;;;10.18;7.03;;;22.60;99.90;;;;;;5074766;28;20044;-61
2022/07/25 04:25:57;;;;;;;10.02;7.22;;;22.60;99.90;;;;;;5074023;28;20041;-62
2022/07/25 04:28:23;;;;;;;8.48;7.28;;;22.60;99.90;;;;;;5075229;28;20355;-62
2022/07/25 04:30:50;;;;;;;8.13;7.15;;;22.60;99.90;;;;;;5073983;28;20066;-61
2022/07/25 04:33:16;;;;;;;10.70;7.43;;;22.60;99.90;;;;;;5074855;28;20573;-62
2022/07/25 04:35:41;;;;;;;8.57;7.25;;;22.60;99.90;;;;;;5073354;28;20131;-61
2022/07/25 04:38:07;;;;;;;9.25;7.20;;;22.70;99.90;;;;;;5074926;28;20071;-62
2022/07/25 04:40:33;;;;;;;8.32;7.28;;;22.70;99.90;;;;;;5056758;28;20127;-61
2022/07/25 04:42:59;;;;;;;10.15;7.82;;;22.70;99.90;;;;;;5074785;28;20086;-62
2022/07/25 04:45:24;;;;;;;8.80;7.53;;;22.70;99.90;;;;;;5073558;28;20036;-61
2022/07/25 04:47:50;;;;;;;10.32;7.25;;;22.80;99.90;;;;;;5074755;28;20044;-61
2022/07/25 04:50:16;;;;;;;10.15;7.38;;;22.80;99.90;;;;;;5074527;28;20047;-61
2022/07/25 04:52:43;;;;;;;9.57;7.07;;;23.00;99.90;;;;;;5074650;28;20051;-62
2022/07/25 04:55:09;;;;;;;9.98;7.38;;;23.00;99.90;;;;;;5073408;28;20045;-61
2022/07/25 04:57:35;;;;;;;8.32;7.38;;;23.00;99.90;;;;;;5074334;28;20074;-62
2022/07/25 05:00:05;;;;;;;9.43;7.10;;;23.00;99.90;;;;;;5074244;28;20055;-62
2022/07/25 05:02:31;;;;;;;9.70;7.03;;;23.00;99.90;;;;;;5073227;28;20063;-61
2022/07/25 05:04:57;;;;;;;10.07;7.60;;;23.10;99.90;;;;;;5074352;28;20040;-61
2022/07/25 05:07:22;;;;;;;8.25;7.38;;;23.10;99.90;;;;;;5074155;28;20067;-61
2022/07/25 05:09:48;;;;;;;12.23;7.53;;;23.10;99.90;;;;;;5073978;28;20050;-62
2022/07/25 05:12:14;;;;;;;10.07;8.07;;;23.00;99.90;;;;;;5073134;28;20044;-62
2022/07/25 05:14:40;;;;;;;8.52;7.35;;;23.00;99.90;;;;;;5073838;28;20045;-61
2022/07/25 05:17:05;;;;;;;12.15;7.60;;;23.00;99.90;;;;;;5074479;28;20330;-61
2022/07/25 05:19:31;;;;;;;8.85;7.75;;;23.00;99.90;;;;;;5072863;28;20422;-61
2022/07/25 05:21:57;;;;;;;11.18;8.63;;;23.00;99.90;;;;;;5074140;28;20109;-60
2022/07/25 05:24:22;;;;;;;10.27;8.20;;;23.10;99.90;;;;;;5072636;28;20036;-62
2022/07/25 05:26:48;;;;;;;10.07;8.38;;;23.20;99.90;;;;;;5073885;28;20045;-62
2022/07/25 05:29:14;;;;;;;9.10;7.85;;;23.50;99.90;;;;;;5074109;28;20474;-61
2022/07/25 05:31:41;;;;;;;10.77;8.60;;;23.60;99.90;;;;;;5055876;28;20459;-61
2022/07/25 05:34:06;;;;;;;9.90;8.00;;;23.60;99.60;;;;;;5072795;28;20044;-61
2022/07/25 05:36:32;;;;;;;10.02;8.95;;;23.60;99.70;;;;;;5073514;28;20040;-62
2022/07/25 05:38:59;;;;;;;11.23;8.82;;;23.60;99.60;;;;;;5072542;28;20056;-62
2022/07/25 05:41:25;;;;;;;12.02;9.02;;;23.50;99.40;;;;;;5073554;28;20049;-62
2022/07/25 05:43:51;;;;;;;10.57;9.02;;;23.50;99.60;;;;;;5073802;28;20410;-61
2022/07/25 05:46:17;;;;;;;11.77;10.23;;;23.40;99.60;;;;;;5073467;28;20504;-61
2022/07/25 05:48:43;;;;;;;12.23;9.35;;;23.40;99.60;;;;;;5073419;28;20044;-62
2022/07/25 05:51:09;;;;;;;11.85;8.88;;;23.40;99.60;;;;;;5072299;28;20129;-62
2022/07/25 05:53:35;;;;;;;12.75;9.65;;;23.30;99.80;;;;;;5073253;28;20087;-62
2022/07/25 05:56:02;;;;;;;10.52;9.38;;;23.30;99.90;;;;;;5072230;28;20048;-62
2022/07/25 05:58:28;;;;;;;10.07;8.90;;;23.30;99.90;;;;;;5072089;28;20131;-62
2022/07/25 06:00:53;;;;;;;13.00;9.23;;;23.30;99.90;;;;;;5072170;28;20461;-62
2022/07/25 06:03:20;;;;;;;11.23;9.55;;;23.30;99.90;;;;;;5073114;28;20098;-62
2022/07/25 06:05:46;;;;;;;14.45;10.55;;;23.30;99.90;;;;;;5072999;28;20051;-62
2022/07/25 06:08:15;;;;;;;11.18;9.98;;;23.30;99.90;;;;;;5071448;28;20060;-60
2022/07/25 06:10:41;;;;;;;10.63;9.52;;;23.30;99.90;;;;;;5071207;28;20048;-62
2022/07/25 06:13:08;;;;;;;16.33;10.40;;;23.40;99.90;;;;;;5073101;28;20041;-62
2022/07/25 06:15:34;;;;;;;12.88;10.52;;;23.50;99.90;;;;;;5054754;28;20079;-63
2022/07/25 06:17:59;;;;;;;12.68;9.60;;;23.50;99.90;;;;;;5071752;28;20078;-62
2022/07/25 06:20:25;;;;;;;10.80;9.70;;;23.60;99.90;;;;;;5072978;28;20040;-62
2022/07/25 06:22:52;;;;;;;12.43;9.52;;;23.60;99.90;;;;;;5073014;28;20044;-62
2022/07/25 06:25:17;;;;;;;15.80;9.48;;;23.70;99.90;;;;;;5073162;28;20047;-62
2022/07/25 06:27:43;;;;;;;12.75;9.68;;;23.70;99.90;;;;;;5072534;28;20056;-62
2022/07/25 06:30:11;;;;;;;13.20;9.63;;;23.80;99.70;;;;;;5072401;28;20370;-62
2022/07/25 06:32:37;;;;;;;11.65;9.05;;;23.90;99.30;;;;;;5072216;28;20048;-62
2022/07/25 06:35:03;;;;;;;11.15;9.10;;;24.00;99.10;;;;;;5071237;28;20063;-62
2022/07/25 06:37:28;;;;;;;12.93;9.13;;;24.30;98.80;;;;;;5072659;28;20123;-61
2022/07/25 06:39:54;;;;;;;9.63;8.63;;;24.50;98.30;;;;;;5072081;28;20053;-63
2022/07/25 06:42:20;;;;;;;12.57;9.50;;;24.90;98.20;;;;;;5072501;28;20508;-62
2022/07/25 06:44:46;;;;;;;10.68;8.88;;;25.70;96.80;;;;;;5072251;28;20386;-62
2022/07/25 06:47:11;;;;;;;11.32;9.43;;;26.60;96.20;;;;;;5072358;28;20478;-62
2022/07/25 06:49:38;;;;;;;11.80;8.38;;;27.30;93.80;;;;;;5071837;28;20052;-63
2022/07/25 06:52:05;;;;;;;9.07;8.10;;;27.90;94.00;;;;;;5071999;28;20048;-62
2022/07/25 06:54:30;;;;;;;13.20;9.00;;;28.20;92.60;;;;;;5070321;28;20597;-63
2022/07/25 06:56:56;;;;;;;9.77;8.25;;;28.60;92.10;;;;;;5070772;28;20143;-63
2022/07/25 06:59:22;;;;;;;14.23;8.48;;;28.70;92.20;;;;;;5070915;28;20055;-62
2022/07/25 07:01:47;;;;;;;13.27;8.65;;;28.50;91.60;;;;;;5071651;28;20127;-61
2022/07/25 07:04:13;;;;;;;9.68;7.90;;;28.10;91.50;;;;;;5070818;28;20086;-61
2022/07/25 07:06:39;;;;;;;10.35;8.02;;;27.80;92.10;;;;;;5053442;28;20052;-62
2022/07/25 07:09:05;;;;;;;11.75;9.27;;;27.50;92.20;;;;;;5072087;28;20049;-62
2022/07/25 07:11:33;;;;;;;12.10;9.10;;;27.20;92.40;;;;;;5071834;28;20055;-62
2022/07/25 07:13:59;;;;;;;9.30;8.23;;;26.90;92.70;;;;;;5071879;28;20044;-63
2022/07/25 07:16:25;;;;;;;11.00;8.77;;;26.50;93.20;;;;;;5070556;28;20044;-63
2022/07/25 07:18:51;;;;;;;11.85;8.23;;;26.30;93.60;;;;;;5071438;28;20040;-62
2022/07/25 07:21:16;;;;;;;9.60;8.00;;;26.10;94.10;;;;;;5070523;28;20127;-62
2022/07/25 07:23:42;;;;;;;11.40;8.82;;;26.00;94.30;;;;;;5053423;28;20048;-64
2022/07/25 07:26:08;;;;;;;11.80;9.02;;;26.00;94.40;;;;;;5070055;28;20120;-62
2022/07/25 07:28:33;;;;;;;11.43;8.27;;;25.90;94.60;;;;;;5071359;28;20067;-62
2022/07/25 07:30:59;;;;;;;11.68;8.93;;;25.90;94.90;;;;;;5069784;28;20055;-62
2022/07/25 07:33:25;;;;;;;10.65;9.02;;;25.80;94.90;;;;;;5071048;28;20040;-61
2022/07/25 07:35:50;;;;;;;11.05;8.60;;;25.90;95.20;;;;;;5069329;28;20043;-63
2022/07/25 07:38:17;;;;;;;11.48;8.80;;;25.90;95.10;;;;;;5070885;28;20141;-61
2022/07/25 07:40:43;;;;;;;10.93;8.40;;;25.90;95.20;;;;;;5070094;28;20060;-62
2022/07/25 07:43:09;;;;;;;10.27;7.88;;;25.90;95.30;;;;;;5070009;28;20043;-62
2022/07/25 07:45:35;;;;;;;14.60;8.15;;;26.00;95.60;;;;;;5071302;28;20109;-62
2022/07/25 07:48:01;;;;;;;8.77;7.57;;;26.20;95.20;;;;;;5070864;28;20402;-63
2022/07/25 07:50:27;;;;;;;9.38;7.25;;;26.40;94.90;;;;;;5070126;28;20119;-62
2022/07/25 07:52:54;;;;;;;10.35;7.15;;;26.40;94.70;;;;;;5070790;28;20102;-63
2022/07/25 07:58:06;;;;;;;8.88;7.10;;;26.40;94.30;;;;;;5071029;28;20508;-62
2022/07/25 08:00:34;;;;;;;11.23;7.47;;;26.50;94.40;;;;;;5069769;28;20040;-62
2022/07/25 08:03:01;;;;;;;10.23;6.40;;;26.50;94.30;;;;;;5070833;28;20041;-62
2022/07/25 08:05:33;;;;;;;12.18;7.03;;;26.50;94.00;;;;;;5071147;28;20076;-62
2022/07/25 08:08:00;;;;;;;9.07;5.93;;;26.50;93.40;;;;;;5086084;28;20048;-61
2022/07/25 08:10:28;;;;;;;12.32;6.20;;;26.40;93.50;;;;;;5070893;28;20041;-63
2022/07/25 08:12:55;;;;;;;9.05;6.40;;;26.30;93.90;;;;;;5070578;28;20048;-62
2022/07/25 08:15:21;;;;;;;12.02;6.82;;;26.30;94.00;;;;;;5070911;28;20044;-62
2022/07/25 08:17:49;;;;;;;14.07;5.80;;;26.30;93.30;;;;;;5069452;28;20529;-62
2022/07/25 08:20:16;;;;;;;10.77;6.22;;;26.40;93.90;;;;;;5071064;28;20481;-62
2022/07/25 08:22:44;;;;;;;8.02;6.07;;;26.50;94.20;;;;;;5070003;28;20629;-62
2022/07/25 08:25:15;;;;;;;7.70;6.53;;;26.50;94.20;;;;;;5069433;28;20108;-62
2022/07/25 08:27:41;;;;;;;10.35;6.18;;;26.50;94.20;;;;;;5071020;28;20451;-62
2022/07/25 08:30:07;;;;;;;55.92;10.27;;;26.70;94.20;;;;;;5069431;28;20505;-61
2022/07/25 08:32:34;;;;;;;60.78;11.10;;;26.90;94.20;;;;;;5070731;28;20053;-61
2022/07/25 08:35:03;;;;;;;8.57;6.30;;;26.90;94.10;;;;;;5072893;28;20043;-64
2022/07/25 08:37:28;;;;;;;7.60;6.03;;;26.90;93.60;;;;;;5073943;28;20109;-64
2022/07/25 08:39:54;;;;;;;7.70;5.68;;;26.80;93.30;;;;;;5074248;28;20127;-65
2022/07/25 08:42:20;;;;;;;8.43;5.25;;;26.60;93.30;;;;;;5074496;28;20048;-64
2022/07/25 08:44:58;;;;;;;8.30;5.47;;;26.40;93.40;;;;;;5074461;28;20055;-68
2022/07/25 08:47:24;;;;;;;9.27;5.40;;;26.30;93.70;;;;;;5074380;28;20044;-64
2022/07/25 08:49:50;;;;;;;7.15;5.20;;;26.20;94.60;;;;;;5090087;28;20063;-63
2022/07/25 08:52:18;;;;;;;8.27;5.32;;;26.00;94.70;;;;;;5074487;28;20048;-64
2022/07/25 08:54:46;;;;;;;7.57;4.43;;;25.90;94.60;;;;;;5074344;28;20477;-62
2022/07/25 08:57:12;;;;;;;6.32;4.45;;;25.80;94.80;;;;;;5073038;28;20044;-63
2022/07/25 08:59:38;;;;;;;6.10;4.10;;;25.70;94.70;;;;;;5074248;28;20048;-64
2022/07/25 09:02:07;;;;;;;6.50;4.47;;;25.50;94.70;;;;;;5073966;28;20090;-65
2022/07/25 09:04:34;;;;;;;7.70;3.80;;;25.50;95.00;;;;;;5056798;28;20052;-63
2022/07/25 09:07:03;;;;;;;5.68;4.25;;;25.40;95.00;;;;;;5073451;28;20096;-65
2022/07/25 09:09:34;;;;;;;33.40;6.32;;;25.40;94.90;;;;;;5072915;28;20063;-63
2022/07/25 09:12:00;;;;;;;30.67;5.68;;;25.30;95.30;;;;;;5072422;28;20105;-64
2022/07/25 09:14:28;;;;;;;7.60;3.05;;;25.20;94.70;;;;;;5073848;28;20123;-64
2022/07/25 09:16:55;;;;;;;16.77;4.00;;;25.20;95.00;;;;;;5073401;28;20505;-64
2022/07/25 09:19:23;;;;;;;22.02;3.67;;;25.40;95.20;;;;;;5072719;28;20044;-63
2022/07/25 09:22:04;;;;;;;8.73;2.90;;;25.70;94.60;;;;;;5073856;28;20040;-63
2022/07/25 09:24:31;;;;;;;4.97;2.67;;;26.10;94.60;;;;;;5073205;28;20040;-64
2022/07/25 09:26:59;;;;;;;6.78;2.70;;;26.20;94.10;;;;;;5073023;28;20060;-65
2022/07/25 09:29:29;;;;;;;4.35;2.58;;;26.10;94.00;;;;;;5072567;28;20048;-64
2022/07/25 09:31:56;;;;;;;5.18;2.50;;;26.00;94.20;;;;;;5073326;28;20127;-65
2022/07/25 09:34:33;;;;;;;3.90;2.60;;;26.00;94.10;;;;;;5055802;28;20047;-63
2022/07/25 09:37:00;;;;;;;5.53;2.50;;;26.00;94.10;;;;;;5072216;28;20051;-62
2022/07/25 09:39:50;;;;;;;5.25;2.30;;;26.00;94.00;;;;;;5073516;28;20105;-62
2022/07/25 09:42:17;;;;;;;6.05;2.45;;;26.10;94.50;;;;;;5072850;28;20520;-62
2022/07/25 09:44:43;;;;;;;5.63;2.47;;;26.30;93.60;;;;;;5072791;28;20084;-63
2022/07/25 09:47:10;;;;;;;4.50;2.42;;;26.50;93.60;;;;;;5072434;28;20090;-63
2022/07/25 09:49:41;;;;;;;4.60;1.73;;;26.60;92.00;;;;;;5072996;28;20052;-62
2022/07/25 09:52:08;;;;;;;3.97;2.05;;;26.60;92.30;;;;;;5070894;28;20484;-63
2022/07/25 09:54:34;;;;;;;6.53;1.92;;;26.80;91.30;;;;;;5072815;28;20090;-64
2022/07/25 09:57:00;;;;;;;4.55;1.92;;;26.90;91.20;;;;;;5088444;28;20395;-64
2022/07/25 09:59:26;;;;;;;4.07;2.15;;;26.90;91.60;;;;;;5072757;28;20044;-64
2022/07/25 10:02:14;;;;;;;3.88;2.00;;;26.90;91.40;;;;;;5071625;28;20393;-63
2022/07/25 10:04:44;;;;;;;3.05;1.90;;;26.80;91.00;;;;;;5071764;28;20052;-64
2022/07/25 10:07:13;;;;;;;3.15;2.08;;;26.70;91.40;;;;;;5071265;28;20064;-62
2022/07/25 10:09:47;;;;;;;4.50;2.05;;;26.70;91.70;;;;;;5071548;28;20048;-63
2022/07/25 10:12:18;;;;;;;3.15;1.90;;;26.80;91.60;;;;;;5072244;28;20048;-64
2022/07/25 10:15:12;;;;;;;4.50;1.80;;;26.80;90.90;;;;;;5072693;28;20048;-63
2022/07/25 10:17:39;;;;;;;3.78;1.75;;;26.90;90.90;;;;;;5071628;28;20052;-62
2022/07/25 10:20:09;;;;;;;4.32;2.00;;;26.80;91.10;;;;;;5072397;28;20051;-62
2022/07/25 10:22:47;;;;;;;3.28;2.00;;;26.80;91.40;;;;;;5071360;28;20205;-63
2022/07/25 10:25:18;;;;;;;5.00;2.17;;;26.50;91.90;;;;;;5070753;28;20041;-63
2022/07/25 10:27:49;;;;;;;4.72;2.67;;;26.30;92.40;;;;;;5071400;28;20052;-63
2022/07/25 10:30:27;;;;;;;3.90;2.00;;;26.20;92.40;;;;;;5071038;28;20056;-63
2022/07/25 10:32:57;;;;;;;4.40;2.08;;;26.10;93.00;;;;;;5071958;28;20624;-63
2022/07/25 10:35:24;;;;;;;3.22;2.15;;;25.90;93.40;;;;;;5071887;28;20075;-63
2022/07/25 10:37:52;;;;;;;3.22;2.10;;;25.80;93.60;;;;;;5071905;28;20048;-64
2022/07/25 10:40:47;;;;;;;6.10;2.42;;;25.70;94.00;;;;;;5072051;28;20056;-62
2022/07/25 10:43:14;;;;;;;6.57;2.65;;;25.60;96.10;;;;;;5070650;28;20084;-62
2022/07/25 10:45:42;;;;;;;3.83;2.08;;;25.60;96.70;;;;;;5072276;28;20049;-62
2022/07/25 10:48:11;;;;;;;5.13;2.58;;;25.40;97.30;;;;;;5071603;28;20408;-62
2022/07/25 10:51:10;;;;;;;6.35;3.08;;;25.10;98.50;;;;;;5071924;28;20044;-63
2022/07/25 10:53:44;;;;;;;4.05;2.65;;;25.00;99.00;;;;;;5063270;28;20052;-61
2022/07/25 10:56:22;;;;;;;5.20;2.78;;;25.00;99.10;;;;;;5070080;28;20040;-65
2022/07/25 10:58:50;;;;;;;4.75;2.42;;;24.90;99.20;;;;;;5071569;28;20508;-63
2022/07/25 11:01:27;;;;;;;4.93;2.90;;;25.00;99.90;;;;;;5071637;28;20044;-63
2022/07/25 11:03:56;;;;;;;4.78;2.35;;;24.90;99.90;;;;;;5071788;28;20490;-63
2022/07/25 11:06:34;;;;;;;4.28;2.63;;;25.10;99.90;;;;;;5071426;28;20049;-62
2022/07/25 11:09:01;;;;;;;4.53;2.50;;;25.10;99.60;;;;;;5071699;28;20136;-63
2022/07/25 11:11:39;;;;;;;7.38;2.47;;;25.20;99.70;;;;;;5071640;28;20123;-64
2022/07/25 11:14:14;;;;;;;5.07;2.30;;;25.20;99.40;;;;;;5071746;28;20371;-63
2022/07/25 11:16:40;;;;;;;7.22;2.85;;;25.30;99.20;;;;;;5054198;28;20067;-63
2022/07/25 11:19:35;;;;;;;7.68;2.60;;;25.30;98.80;;;;;;5071542;28;20531;-64
2022/07/25 11:22:04;;;;;;;5.68;2.13;;;25.30;99.10;;;;;;5066531;28;20066;-63
2022/07/25 11:24:35;;;;;;;5.28;2.00;;;25.40;98.90;;;;;;5071340;28;20043;-63
2022/07/25 11:27:00;;;;;;;5.38;1.90;;;25.30;98.90;;;;;;5071471;28;20052;-63
2022/07/25 11:29:26;;;;;;;6.88;2.42;;;25.40;99.30;;;;;;5070587;28;20048;-63
2022/07/25 11:32:07;;;;;;;7.22;2.55;;;25.40;98.50;;;;;;5070195;28;20040;-63
2022/07/25 11:34:35;;;;;;;7.35;2.50;;;25.40;98.50;;;;;;5070080;28;20052;-64
2022/07/25 11:37:04;;;;;;;6.38;2.53;;;25.50;98.40;;;;;;5071275;28;20036;-63
2022/07/25 11:39:33;;;;;;;5.47;2.25;;;25.60;99.40;;;;;;5069706;28;20131;-62
2022/07/25 11:42:07;;;;;;;12.93;2.88;;;25.80;97.80;;;;;;5071305;28;20071;-64
2022/07/25 11:44:39;;;;;;;8.10;2.42;;;25.90;97.30;;;;;;5071196;28;20040;-63
2022/07/25 11:47:07;;;;;;;8.40;2.28;;;25.90;96.80;;;;;;5071421;28;20086;-64
2022/07/25 11:49:47;;;;;;;5.20;2.63;;;26.10;96.40;;;;;;5071014;28;20050;-63
2022/07/25 11:52:30;;;;;;;6.35;2.15;;;26.10;96.60;;;;;;5054040;28;20068;-64
2022/07/25 11:55:08;;;;;;;9.10;2.90;;;26.10;96.90;;;;;;5071124;28;20045;-63
2022/07/25 11:57:38;;;;;;;9.35;3.10;;;26.10;97.20;;;;;;5070976;28;20049;-63
2022/07/25 12:00:10;;;;;;;5.47;2.65;;;25.80;97.20;;;;;;5071324;28;20408;-63
2022/07/25 12:02:36;;;;;;;11.82;2.60;;;25.60;97.70;;;;;;5071082;28;20131;-61
2022/07/25 12:05:08;;;;;;;9.75;2.83;;;25.50;97.60;;;;;;5071415;28;20041;-63
2022/07/25 12:07:39;;;;;;;11.43;2.47;;;25.60;97.70;;;;;;5069212;28;20117;-62
2022/07/25 12:10:08;;;;;;;9.02;2.28;;;25.70;97.80;;;;;;5072994;28;20048;-62
2022/07/25 12:13:02;;;;;;;7.60;2.25;;;25.80;97.20;;;;;;5073986;28;20377;-62
2022/07/25 12:15:39;;;;;;;7.07;2.40;;;25.90;96.40;;;;;;5071984;28;20117;-63
2022/07/25 12:18:08;;;;;;;8.43;2.75;;;25.70;95.80;;;;;;5074830;28;20367;-63
2022/07/25 12:20:37;;;;;;;7.28;2.85;;;25.70;96.10;;;;;;5074138;28;20379;-62
2022/07/25 12:23:05;;;;;;;5.93;2.45;;;25.60;96.20;;;;;;5073248;28;20083;-63
2022/07/25 12:25:32;;;;;;;12.80;2.80;;;25.60;96.50;;;;;;5074568;28;20049;-62
2022/07/25 12:27:59;;;;;;;8.05;2.63;;;25.60;96.50;;;;;;5074678;28;20181;-62
2022/07/25 12:30:29;;;;;;;9.77;2.60;;;25.50;96.60;;;;;;5074354;28;20045;-63
2022/07/25 12:32:55;;;;;;;6.22;2.30;;;25.50;96.90;;;;;;5074787;28;20044;-63
2022/07/25 12:35:21;;;;;;;7.80;2.40;;;25.40;96.40;;;;;;5072967;28;20032;-62
2022/07/25 12:37:47;;;;;;;6.90;2.03;;;25.30;96.60;;;;;;5056923;28;20052;-62
2022/07/25 12:40:14;;;;;;;6.15;2.50;;;25.30;96.70;;;;;;5074379;28;20048;-62
2022/07/25 12:42:39;;;;;;;7.00;2.08;;;25.40;96.60;;;;;;5074378;28;20305;-62
2022/07/25 12:45:07;;;;;;;6.05;1.88;;;25.40;95.70;;;;;;5074280;28;20079;-63
2022/07/25 12:47:33;;;;;;;5.50;2.40;;;25.40;95.80;;;;;;5073965;28;20128;-62